KLMT/LMT METAR and TAF weather

Enter ICAO airport designator
Station Type Date Time Source
KLMT METAR 2020/07/02 18:53 UTC NOAA

KLMT 021853Z VRB04KT 10SM CLR 20/M01 A3003 RMK AO2 SLP142 T02001011


Station Type Date Time Source
KLMT Decoded METAR 2020/07/02 18:53 UTC NOAA

KLAMATH FALLS INTERNATIONAL AIRPORT, OR, United States (KLMT) 42-09N 121-43W 1246M
Jul 02, 2020 - 02:53 PM EDT / 2020.07.02 1853 UTC
Wind: Variable at 5 MPH (4 KT):0
Visibility: 10 mile(s):0
Sky conditions: clear
Temperature: 68.0 F (20.0 C)
Dew Point: 30.0 F (-1.1 C)
Relative Humidity: 24%
Pressure (altimeter): 30.03 in. Hg (1016 hPa)
ob: KLMT 021853Z VRB04KT 10SM CLR 20/M01 A3003 RMK AO2 SLP142 T02001011
cycle: 19

Station Type Date Time Source
KLMT TAF 2020/07/02 18:22 UTC NOAA

TAF KLMT 021720Z 0218/0318 VRB03KT P6SM SKC
FM022300 32010KT P6SM SKC
FM030400 VRB03KT P6SM SKC

Example: see airport list